sensor_id;sensor_type;location;lat;lon;timestamp;P1;durP1;ratioP1;P2;durP2;ratioP2
20069;SDS011;10195;50.868;4.382;2023-01-24T00:01:40;47.13;;;28.87;;
20069;SDS011;10195;50.868;4.382;2023-01-24T00:04:06;48.27;;;30.07;;
20069;SDS011;10195;50.868;4.382;2023-01-24T00:06:32;47.13;;;26.70;;
20069;SDS011;10195;50.868;4.382;2023-01-24T00:08:58;42.00;;;25.10;;
20069;SDS011;10195;50.868;4.382;2023-01-24T00:11:23;43.53;;;25.27;;
20069;SDS011;10195;50.868;4.382;2023-01-24T00:13:49;42.47;;;24.67;;
20069;SDS011;10195;50.868;4.382;2023-01-24T00:16:19;32.47;;;18.67;;
20069;SDS011;10195;50.868;4.382;2023-01-24T00:18:45;45.43;;;28.23;;
20069;SDS011;10195;50.868;4.382;2023-01-24T00:21:16;36.27;;;21.47;;
20069;SDS011;10195;50.868;4.382;2023-01-24T00:23:45;45.87;;;28.03;;
20069;SDS011;10195;50.868;4.382;2023-01-24T00:26:13;44.23;;;27.40;;
20069;SDS011;10195;50.868;4.382;2023-01-24T00:28:39;48.93;;;27.57;;
20069;SDS011;10195;50.868;4.382;2023-01-24T00:31:05;46.63;;;27.53;;
20069;SDS011;10195;50.868;4.382;2023-01-24T00:33:32;43.50;;;26.33;;
20069;SDS011;10195;50.868;4.382;2023-01-24T00:35:59;51.33;;;27.93;;
20069;SDS011;10195;50.868;4.382;2023-01-24T00:38:25;39.37;;;23.30;;
20069;SDS011;10195;50.868;4.382;2023-01-24T00:40:52;26.20;;;13.37;;
20069;SDS011;10195;50.868;4.382;2023-01-24T00:43:18;29.80;;;16.07;;
20069;SDS011;10195;50.868;4.382;2023-01-24T00:45:44;27.40;;;13.20;;
20069;SDS011;10195;50.868;4.382;2023-01-24T00:48:10;42.13;;;25.73;;
20069;SDS011;10195;50.868;4.382;2023-01-24T00:50:36;41.97;;;26.00;;
20069;SDS011;10195;50.868;4.382;2023-01-24T00:53:02;42.57;;;26.20;;
20069;SDS011;10195;50.868;4.382;2023-01-24T00:55:28;44.30;;;26.30;;
20069;SDS011;10195;50.868;4.382;2023-01-24T00:57:54;47.40;;;27.07;;
20069;SDS011;10195;50.868;4.382;2023-01-24T01:00:19;44.47;;;25.57;;
20069;SDS011;10195;50.868;4.382;2023-01-24T01:02:46;41.90;;;24.00;;
20069;SDS011;10195;50.868;4.382;2023-01-24T01:05:12;40.10;;;24.27;;
20069;SDS011;10195;50.868;4.382;2023-01-24T01:07:38;44.33;;;26.23;;
20069;SDS011;10195;50.868;4.382;2023-01-24T01:10:04;43.23;;;26.53;;
20069;SDS011;10195;50.868;4.382;2023-01-24T01:12:29;37.30;;;20.17;;
20069;SDS011;10195;50.868;4.382;2023-01-24T01:14:55;23.33;;;12.10;;
20069;SDS011;10195;50.868;4.382;2023-01-24T01:17:21;45.80;;;27.00;;
20069;SDS011;10195;50.868;4.382;2023-01-24T01:19:50;42.63;;;26.47;;
20069;SDS011;10195;50.868;4.382;2023-01-24T01:22:16;28.37;;;16.00;;
20069;SDS011;10195;50.868;4.382;2023-01-24T01:24:42;39.27;;;21.30;;
20069;SDS011;10195;50.868;4.382;2023-01-24T01:27:08;44.83;;;26.00;;
20069;SDS011;10195;50.868;4.382;2023-01-24T01:29:34;22.33;;;11.93;;
20069;SDS011;10195;50.868;4.382;2023-01-24T01:31:59;46.60;;;25.17;;
20069;SDS011;10195;50.868;4.382;2023-01-24T01:34:25;46.73;;;26.60;;
20069;SDS011;10195;50.868;4.382;2023-01-24T01:36:51;44.00;;;26.07;;
20069;SDS011;10195;50.868;4.382;2023-01-24T01:39:16;42.27;;;25.10;;
20069;SDS011;10195;50.868;4.382;2023-01-24T01:41:42;46.70;;;26.77;;
20069;SDS011;10195;50.868;4.382;2023-01-24T01:47:27;36.07;;;19.17;;
20069;SDS011;10195;50.868;4.382;2023-01-24T01:52:34;38.17;;;24.20;;
20069;SDS011;10195;50.868;4.382;2023-01-24T01:55:13;39.40;;;23.73;;
20069;SDS011;10195;50.868;4.382;2023-01-24T01:57:41;37.40;;;22.43;;
20069;SDS011;10195;50.868;4.382;2023-01-24T02:00:10;35.80;;;22.63;;
20069;SDS011;10195;50.868;4.382;2023-01-24T02:03:04;37.93;;;21.40;;
20069;SDS011;10195;50.868;4.382;2023-01-24T02:05:48;34.27;;;20.53;;
20069;SDS011;10195;50.868;4.382;2023-01-24T02:08:17;35.93;;;22.87;;
20069;SDS011;10195;50.868;4.382;2023-01-24T02:10:46;33.37;;;20.47;;
20069;SDS011;10195;50.868;4.382;2023-01-24T02:13:31;24.83;;;13.10;;
20069;SDS011;10195;50.868;4.382;2023-01-24T02:15:57;35.67;;;22.93;;
20069;SDS011;10195;50.868;4.382;2023-01-24T02:18:32;35.03;;;22.13;;
20069;SDS011;10195;50.868;4.382;2023-01-24T02:21:00;37.90;;;23.63;;
20069;SDS011;10195;50.868;4.382;2023-01-24T02:23:38;38.37;;;22.97;;
20069;SDS011;10195;50.868;4.382;2023-01-24T02:26:26;35.23;;;21.33;;
20069;SDS011;10195;50.868;4.382;2023-01-24T02:29:00;36.43;;;22.67;;
20069;SDS011;10195;50.868;4.382;2023-01-24T02:31:50;35.30;;;21.00;;
20069;SDS011;10195;50.868;4.382;2023-01-24T02:34:20;36.53;;;21.70;;
20069;SDS011;10195;50.868;4.382;2023-01-24T02:36:46;35.87;;;22.87;;
20069;SDS011;10195;50.868;4.382;2023-01-24T02:39:18;36.33;;;21.90;;
20069;SDS011;10195;50.868;4.382;2023-01-24T02:42:21;37.10;;;22.47;;
20069;SDS011;10195;50.868;4.382;2023-01-24T02:45:05;32.53;;;19.67;;
20069;SDS011;10195;50.868;4.382;2023-01-24T02:47:35;27.47;;;16.10;;
20069;SDS011;10195;50.868;4.382;2023-01-24T02:50:05;34.17;;;22.17;;
20069;SDS011;10195;50.868;4.382;2023-01-24T02:52:33;38.17;;;23.47;;
20069;SDS011;10195;50.868;4.382;2023-01-24T02:55:17;30.50;;;18.90;;
20069;SDS011;10195;50.868;4.382;2023-01-24T02:57:43;36.80;;;23.13;;
20069;SDS011;10195;50.868;4.382;2023-01-24T03:00:27;34.80;;;22.30;;
20069;SDS011;10195;50.868;4.382;2023-01-24T03:02:52;33.67;;;21.23;;
20069;SDS011;10195;50.868;4.382;2023-01-24T03:05:18;33.73;;;21.83;;
20069;SDS011;10195;50.868;4.382;2023-01-24T03:07:44;34.07;;;21.43;;
20069;SDS011;10195;50.868;4.382;2023-01-24T03:10:10;36.03;;;19.77;;
20069;SDS011;10195;50.868;4.382;2023-01-24T03:12:38;33.17;;;20.70;;
20069;SDS011;10195;50.868;4.382;2023-01-24T03:15:23;36.47;;;22.07;;
20069;SDS011;10195;50.868;4.382;2023-01-24T03:18:07;27.60;;;17.27;;
20069;SDS011;10195;50.868;4.382;2023-01-24T03:20:51;35.37;;;22.40;;
20069;SDS011;10195;50.868;4.382;2023-01-24T03:23:35;36.43;;;21.80;;
20069;SDS011;10195;50.868;4.382;2023-01-24T03:26:20;35.93;;;22.37;;
20069;SDS011;10195;50.868;4.382;2023-01-24T03:29:04;36.10;;;21.73;;
20069;SDS011;10195;50.868;4.382;2023-01-24T03:31:48;30.97;;;18.23;;
20069;SDS011;10195;50.868;4.382;2023-01-24T03:34:32;30.93;;;17.10;;
20069;SDS011;10195;50.868;4.382;2023-01-24T03:36:58;35.40;;;21.83;;
20069;SDS011;10195;50.868;4.382;2023-01-24T03:39:25;35.90;;;22.17;;
20069;SDS011;10195;50.868;4.382;2023-01-24T03:42:09;33.20;;;21.37;;
20069;SDS011;10195;50.868;4.382;2023-01-24T03:44:35;38.07;;;21.57;;
20069;SDS011;10195;50.868;4.382;2023-01-24T03:47:00;37.07;;;22.20;;
20069;SDS011;10195;50.868;4.382;2023-01-24T03:49:26;36.60;;;21.90;;
20069;SDS011;10195;50.868;4.382;2023-01-24T03:52:10;33.97;;;21.50;;
20069;SDS011;10195;50.868;4.382;2023-01-24T03:54:57;32.87;;;21.00;;
20069;SDS011;10195;50.868;4.382;2023-01-24T03:57:25;31.50;;;19.80;;
20069;SDS011;10195;50.868;4.382;2023-01-24T03:59:51;31.77;;;20.10;;
20069;SDS011;10195;50.868;4.382;2023-01-24T04:02:17;33.70;;;19.53;;
20069;SDS011;10195;50.868;4.382;2023-01-24T04:04:44;34.27;;;19.63;;
20069;SDS011;10195;50.868;4.382;2023-01-24T04:07:28;37.57;;;19.90;;
20069;SDS011;10195;50.868;4.382;2023-01-24T04:09:54;32.70;;;20.37;;
20069;SDS011;10195;50.868;4.382;2023-01-24T04:12:20;35.80;;;20.23;;
20069;SDS011;10195;50.868;4.382;2023-01-24T04:14:46;33.47;;;20.80;;
20069;SDS011;10195;50.868;4.382;2023-01-24T04:17:11;35.80;;;21.60;;
20069;SDS011;10195;50.868;4.382;2023-01-24T04:19:37;34.33;;;21.07;;
20069;SDS011;10195;50.868;4.382;2023-01-24T04:22:02;33.60;;;21.20;;
20069;SDS011;10195;50.868;4.382;2023-01-24T04:24:28;31.90;;;19.33;;
20069;SDS011;10195;50.868;4.382;2023-01-24T04:26:54;30.53;;;19.13;;
20069;SDS011;10195;50.868;4.382;2023-01-24T04:29:19;30.60;;;17.73;;
20069;SDS011;10195;50.868;4.382;2023-01-24T04:31:45;32.63;;;19.60;;
20069;SDS011;10195;50.868;4.382;2023-01-24T04:34:11;37.60;;;21.50;;
20069;SDS011;10195;50.868;4.382;2023-01-24T04:36:37;27.77;;;18.27;;
20069;SDS011;10195;50.868;4.382;2023-01-24T04:39:02;33.03;;;20.90;;
20069;SDS011;10195;50.868;4.382;2023-01-24T04:41:28;32.77;;;19.33;;
20069;SDS011;10195;50.868;4.382;2023-01-24T04:43:54;32.77;;;20.50;;
20069;SDS011;10195;50.868;4.382;2023-01-24T04:46:19;19.87;;;10.80;;
20069;SDS011;10195;50.868;4.382;2023-01-24T04:48:45;32.77;;;19.87;;
20069;SDS011;10195;50.868;4.382;2023-01-24T04:51:11;29.53;;;19.57;;
20069;SDS011;10195;50.868;4.382;2023-01-24T04:53:37;21.37;;;13.13;;
20069;SDS011;10195;50.868;4.382;2023-01-24T04:56:04;31.57;;;19.60;;
20069;SDS011;10195;50.868;4.382;2023-01-24T04:58:31;29.10;;;18.10;;
20069;SDS011;10195;50.868;4.382;2023-01-24T05:00:57;31.10;;;18.47;;
20069;SDS011;10195;50.868;4.382;2023-01-24T05:03:23;33.20;;;19.93;;
20069;SDS011;10195;50.868;4.382;2023-01-24T05:05:49;32.73;;;20.00;;
20069;SDS011;10195;50.868;4.382;2023-01-24T05:08:16;34.60;;;20.73;;
20069;SDS011;10195;50.868;4.382;2023-01-24T05:10:42;29.80;;;19.57;;
20069;SDS011;10195;50.868;4.382;2023-01-24T05:13:07;32.13;;;20.17;;
20069;SDS011;10195;50.868;4.382;2023-01-24T05:15:33;32.23;;;21.07;;
20069;SDS011;10195;50.868;4.382;2023-01-24T05:17:59;16.57;;;9.20;;
20069;SDS011;10195;50.868;4.382;2023-01-24T05:20:25;22.43;;;14.13;;
20069;SDS011;10195;50.868;4.382;2023-01-24T05:22:50;30.70;;;19.67;;
20069;SDS011;10195;50.868;4.382;2023-01-24T05:25:16;34.87;;;20.23;;
20069;SDS011;10195;50.868;4.382;2023-01-24T05:27:43;34.47;;;21.37;;
20069;SDS011;10195;50.868;4.382;2023-01-24T05:30:10;32.77;;;19.90;;
20069;SDS011;10195;50.868;4.382;2023-01-24T05:32:36;34.93;;;21.83;;
20069;SDS011;10195;50.868;4.382;2023-01-24T05:35:02;32.43;;;20.60;;
20069;SDS011;10195;50.868;4.382;2023-01-24T05:37:28;34.00;;;20.73;;
20069;SDS011;10195;50.868;4.382;2023-01-24T05:39:54;31.53;;;19.50;;
20069;SDS011;10195;50.868;4.382;2023-01-24T05:42:19;37.93;;;22.83;;
20069;SDS011;10195;50.868;4.382;2023-01-24T05:44:45;33.87;;;20.37;;
20069;SDS011;10195;50.868;4.382;2023-01-24T05:47:11;36.43;;;22.70;;
20069;SDS011;10195;50.868;4.382;2023-01-24T05:49:36;37.27;;;22.77;;
20069;SDS011;10195;50.868;4.382;2023-01-24T05:52:02;32.57;;;19.53;;
20069;SDS011;10195;50.868;4.382;2023-01-24T05:54:27;38.10;;;22.63;;
20069;SDS011;10195;50.868;4.382;2023-01-24T05:56:53;37.07;;;22.67;;
20069;SDS011;10195;50.868;4.382;2023-01-24T05:59:19;39.47;;;24.43;;
20069;SDS011;10195;50.868;4.382;2023-01-24T06:01:45;39.70;;;24.43;;
20069;SDS011;10195;50.868;4.382;2023-01-24T06:04:10;35.73;;;22.90;;
20069;SDS011;10195;50.868;4.382;2023-01-24T06:06:42;20.70;;;10.80;;
20069;SDS011;10195;50.868;4.382;2023-01-24T06:09:08;34.03;;;21.80;;
20069;SDS011;10195;50.868;4.382;2023-01-24T06:11:34;39.20;;;22.97;;
20069;SDS011;10195;50.868;4.382;2023-01-24T06:14:00;35.83;;;21.93;;
20069;SDS011;10195;50.868;4.382;2023-01-24T06:16:25;36.47;;;22.97;;
20069;SDS011;10195;50.868;4.382;2023-01-24T06:18:52;35.47;;;22.57;;
20069;SDS011;10195;50.868;4.382;2023-01-24T06:23:53;34.90;;;20.67;;
20069;SDS011;10195;50.868;4.382;2023-01-24T06:26:18;37.73;;;23.10;;
20069;SDS011;10195;50.868;4.382;2023-01-24T06:28:44;41.37;;;23.80;;
20069;SDS011;10195;50.868;4.382;2023-01-24T06:34:02;39.87;;;24.20;;
20069;SDS011;10195;50.868;4.382;2023-01-24T06:36:52;37.87;;;23.07;;
20069;SDS011;10195;50.868;4.382;2023-01-24T06:39:25;43.83;;;25.93;;
20069;SDS011;10195;50.868;4.382;2023-01-24T06:41:51;44.90;;;24.97;;
20069;SDS011;10195;50.868;4.382;2023-01-24T06:44:16;40.03;;;24.87;;
20069;SDS011;10195;50.868;4.382;2023-01-24T06:46:42;36.77;;;20.70;;
20069;SDS011;10195;50.868;4.382;2023-01-24T06:49:09;43.77;;;25.57;;
20069;SDS011;10195;50.868;4.382;2023-01-24T06:51:36;43.33;;;26.73;;
20069;SDS011;10195;50.868;4.382;2023-01-24T06:54:02;44.47;;;27.30;;
20069;SDS011;10195;50.868;4.382;2023-01-24T06:56:28;43.43;;;25.03;;
20069;SDS011;10195;50.868;4.382;2023-01-24T06:58:53;45.53;;;26.20;;
20069;SDS011;10195;50.868;4.382;2023-01-24T07:01:19;48.30;;;27.10;;
20069;SDS011;10195;50.868;4.382;2023-01-24T07:03:45;43.87;;;24.43;;
20069;SDS011;10195;50.868;4.382;2023-01-24T07:06:10;48.17;;;27.73;;
20069;SDS011;10195;50.868;4.382;2023-01-24T07:08:36;45.87;;;25.30;;
20069;SDS011;10195;50.868;4.382;2023-01-24T07:11:02;42.63;;;21.87;;
20069;SDS011;10195;50.868;4.382;2023-01-24T07:13:27;48.17;;;28.07;;
20069;SDS011;10195;50.868;4.382;2023-01-24T07:15:53;51.07;;;29.57;;
20069;SDS011;10195;50.868;4.382;2023-01-24T07:18:19;53.83;;;28.43;;
20069;SDS011;10195;50.868;4.382;2023-01-24T07:20:45;48.40;;;28.40;;
20069;SDS011;10195;50.868;4.382;2023-01-24T07:23:24;54.37;;;31.37;;
20069;SDS011;10195;50.868;4.382;2023-01-24T07:25:53;57.17;;;29.00;;
20069;SDS011;10195;50.868;4.382;2023-01-24T07:28:20;49.33;;;29.07;;
20069;SDS011;10195;50.868;4.382;2023-01-24T07:30:46;41.70;;;24.23;;
20069;SDS011;10195;50.868;4.382;2023-01-24T07:33:13;46.57;;;26.60;;
20069;SDS011;10195;50.868;4.382;2023-01-24T07:35:39;49.00;;;27.83;;
20069;SDS011;10195;50.868;4.382;2023-01-24T07:38:06;48.00;;;27.63;;
20069;SDS011;10195;50.868;4.382;2023-01-24T07:40:32;44.40;;;25.37;;
20069;SDS011;10195;50.868;4.382;2023-01-24T07:43:01;39.77;;;21.60;;
20069;SDS011;10195;50.868;4.382;2023-01-24T07:45:28;46.70;;;29.17;;
20069;SDS011;10195;50.868;4.382;2023-01-24T07:47:57;48.30;;;29.53;;
20069;SDS011;10195;50.868;4.382;2023-01-24T07:50:24;52.90;;;28.93;;
20069;SDS011;10195;50.868;4.382;2023-01-24T07:52:51;54.07;;;30.33;;
20069;SDS011;10195;50.868;4.382;2023-01-24T07:55:17;47.40;;;26.50;;
20069;SDS011;10195;50.868;4.382;2023-01-24T07:57:43;51.63;;;30.00;;
20069;SDS011;10195;50.868;4.382;2023-01-24T08:00:09;49.20;;;30.33;;
20069;SDS011;10195;50.868;4.382;2023-01-24T08:02:35;50.07;;;29.10;;
20069;SDS011;10195;50.868;4.382;2023-01-24T08:05:01;52.80;;;31.50;;
20069;SDS011;10195;50.868;4.382;2023-01-24T08:07:27;50.17;;;29.97;;
20069;SDS011;10195;50.868;4.382;2023-01-24T08:09:52;50.57;;;28.47;;
20069;SDS011;10195;50.868;4.382;2023-01-24T08:12:18;55.93;;;32.00;;
20069;SDS011;10195;50.868;4.382;2023-01-24T08:14:43;48.27;;;29.57;;
20069;SDS011;10195;50.868;4.382;2023-01-24T08:17:09;55.07;;;32.17;;
20069;SDS011;10195;50.868;4.382;2023-01-24T08:19:35;51.90;;;30.40;;
20069;SDS011;10195;50.868;4.382;2023-01-24T08:22:02;42.60;;;22.47;;
20069;SDS011;10195;50.868;4.382;2023-01-24T08:24:28;50.60;;;30.97;;
20069;SDS011;10195;50.868;4.382;2023-01-24T08:26:54;51.40;;;29.80;;
20069;SDS011;10195;50.868;4.382;2023-01-24T08:29:19;47.23;;;29.27;;
20069;SDS011;10195;50.868;4.382;2023-01-24T08:31:45;55.37;;;31.43;;
20069;SDS011;10195;50.868;4.382;2023-01-24T08:34:13;59.17;;;32.27;;
20069;SDS011;10195;50.868;4.382;2023-01-24T08:36:39;55.40;;;33.17;;
20069;SDS011;10195;50.868;4.382;2023-01-24T08:39:04;52.27;;;30.80;;
20069;SDS011;10195;50.868;4.382;2023-01-24T08:41:30;39.63;;;22.97;;
20069;SDS011;10195;50.868;4.382;2023-01-24T08:43:56;51.83;;;30.50;;
20069;SDS011;10195;50.868;4.382;2023-01-24T08:46:21;49.87;;;30.73;;
20069;SDS011;10195;50.868;4.382;2023-01-24T08:48:47;36.93;;;19.07;;
20069;SDS011;10195;50.868;4.382;2023-01-24T08:51:13;53.90;;;31.30;;
20069;SDS011;10195;50.868;4.382;2023-01-24T08:53:39;44.63;;;26.27;;
20069;SDS011;10195;50.868;4.382;2023-01-24T08:56:05;51.80;;;29.07;;
20069;SDS011;10195;50.868;4.382;2023-01-24T08:58:32;54.50;;;32.53;;
20069;SDS011;10195;50.868;4.382;2023-01-24T09:00:58;50.97;;;31.73;;
20069;SDS011;10195;50.868;4.382;2023-01-24T09:03:31;56.43;;;33.33;;
20069;SDS011;10195;50.868;4.382;2023-01-24T09:05:57;49.57;;;32.23;;
20069;SDS011;10195;50.868;4.382;2023-01-24T09:08:23;32.93;;;17.47;;
20069;SDS011;10195;50.868;4.382;2023-01-24T09:10:48;53.73;;;31.33;;
20069;SDS011;10195;50.868;4.382;2023-01-24T09:13:14;56.87;;;32.67;;
20069;SDS011;10195;50.868;4.382;2023-01-24T09:15:40;56.80;;;29.53;;
20069;SDS011;10195;50.868;4.382;2023-01-24T09:18:06;54.30;;;31.50;;
20069;SDS011;10195;50.868;4.382;2023-01-24T09:20:31;51.83;;;32.50;;
20069;SDS011;10195;50.868;4.382;2023-01-24T09:22:57;49.40;;;29.37;;
20069;SDS011;10195;50.868;4.382;2023-01-24T09:25:23;50.83;;;31.50;;
20069;SDS011;10195;50.868;4.382;2023-01-24T09:27:55;48.03;;;29.87;;
20069;SDS011;10195;50.868;4.382;2023-01-24T09:30:21;46.23;;;29.90;;
20069;SDS011;10195;50.868;4.382;2023-01-24T09:32:48;48.60;;;29.63;;
20069;SDS011;10195;50.868;4.382;2023-01-24T09:35:14;47.57;;;28.20;;
20069;SDS011;10195;50.868;4.382;2023-01-24T09:37:40;32.40;;;18.93;;
20069;SDS011;10195;50.868;4.382;2023-01-24T09:40:50;52.37;;;28.77;;
20069;SDS011;10195;50.868;4.382;2023-01-24T09:46:18;46.73;;;26.73;;
20069;SDS011;10195;50.868;4.382;2023-01-24T09:48:49;42.50;;;26.03;;
20069;SDS011;10195;50.868;4.382;2023-01-24T09:51:22;24.90;;;12.37;;
20069;SDS011;10195;50.868;4.382;2023-01-24T09:53:53;44.53;;;25.90;;
20069;SDS011;10195;50.868;4.382;2023-01-24T09:56:43;39.33;;;25.00;;
20069;SDS011;10195;50.868;4.382;2023-01-24T10:02:15;36.10;;;23.20;;
20069;SDS011;10195;50.868;4.382;2023-01-24T10:04:42;38.27;;;22.60;;
20069;SDS011;10195;50.868;4.382;2023-01-24T10:09:47;39.77;;;24.83;;
20069;SDS011;10195;50.868;4.382;2023-01-24T10:12:41;41.50;;;25.33;;
20069;SDS011;10195;50.868;4.382;2023-01-24T10:15:30;50.00;;;26.60;;
20069;SDS011;10195;50.868;4.382;2023-01-24T10:24:03;44.30;;;25.50;;
20069;SDS011;10195;50.868;4.382;2023-01-24T10:26:42;40.63;;;25.73;;
20069;SDS011;10195;50.868;4.382;2023-01-24T10:32:05;42.80;;;26.67;;
20069;SDS011;10195;50.868;4.382;2023-01-24T10:34:44;46.83;;;28.30;;
20069;SDS011;10195;50.868;4.382;2023-01-24T10:37:15;44.50;;;26.43;;
20069;SDS011;10195;50.868;4.382;2023-01-24T10:39:45;40.33;;;24.53;;
20069;SDS011;10195;50.868;4.382;2023-01-24T10:44:51;48.07;;;27.70;;
20069;SDS011;10195;50.868;4.382;2023-01-24T10:50:10;45.00;;;26.33;;
20069;SDS011;10195;50.868;4.382;2023-01-24T10:52:37;37.97;;;23.90;;
20069;SDS011;10195;50.868;4.382;2023-01-24T10:55:18;34.97;;;22.93;;
20069;SDS011;10195;50.868;4.382;2023-01-24T10:57:55;39.20;;;24.23;;
20069;SDS011;10195;50.868;4.382;2023-01-24T11:02:55;40.90;;;24.90;;
20069;SDS011;10195;50.868;4.382;2023-01-24T11:05:37;36.73;;;23.50;;
20069;SDS011;10195;50.868;4.382;2023-01-24T11:08:14;38.70;;;24.20;;
20069;SDS011;10195;50.868;4.382;2023-01-24T11:10:55;36.40;;;23.57;;
20069;SDS011;10195;50.868;4.382;2023-01-24T11:13:24;35.27;;;22.17;;
20069;SDS011;10195;50.868;4.382;2023-01-24T11:18:45;34.47;;;23.33;;
20069;SDS011;10195;50.868;4.382;2023-01-24T11:21:24;45.67;;;25.07;;
20069;SDS011;10195;50.868;4.382;2023-01-24T11:23:59;39.23;;;24.73;;
20069;SDS011;10195;50.868;4.382;2023-01-24T11:26:32;37.53;;;24.47;;
20069;SDS011;10195;50.868;4.382;2023-01-24T11:29:02;33.20;;;21.17;;
20069;SDS011;10195;50.868;4.382;2023-01-24T11:31:35;31.63;;;20.27;;
20069;SDS011;10195;50.868;4.382;2023-01-24T11:40:12;37.20;;;23.40;;
20069;SDS011;10195;50.868;4.382;2023-01-24T11:45:38;45.47;;;26.33;;
20069;SDS011;10195;50.868;4.382;2023-01-24T11:48:30;45.10;;;26.20;;
20069;SDS011;10195;50.868;4.382;2023-01-24T12:02:44;41.23;;;25.93;;
20069;SDS011;10195;50.868;4.382;2023-01-24T12:11:38;26.10;;;15.00;;
20069;SDS011;10195;50.868;4.382;2023-01-24T12:17:05;46.53;;;29.27;;
20069;SDS011;10195;50.868;4.382;2023-01-24T12:22:47;42.30;;;23.57;;
20069;SDS011;10195;50.868;4.382;2023-01-24T12:25:48;27.43;;;14.10;;
20069;SDS011;10195;50.868;4.382;2023-01-24T12:28:11;27.13;;;14.83;;
20069;SDS011;10195;50.868;4.382;2023-01-24T12:33:28;57.60;;;29.63;;
20069;SDS011;10195;50.868;4.382;2023-01-24T12:39:01;46.10;;;29.00;;
20069;SDS011;10195;50.868;4.382;2023-01-24T12:41:36;45.77;;;29.83;;
20069;SDS011;10195;50.868;4.382;2023-01-24T12:52:00;49.27;;;28.90;;
20069;SDS011;10195;50.868;4.382;2023-01-24T12:57:25;44.23;;;27.83;;
20069;SDS011;10195;50.868;4.382;2023-01-24T13:00:03;33.80;;;21.00;;
20069;SDS011;10195;50.868;4.382;2023-01-24T13:13:19;48.00;;;27.47;;
20069;SDS011;10195;50.868;4.382;2023-01-24T13:16:05;48.73;;;26.00;;
20069;SDS011;10195;50.868;4.382;2023-01-24T13:24:46;43.77;;;25.33;;
20069;SDS011;10195;50.868;4.382;2023-01-24T13:32:58;40.13;;;23.97;;
20069;SDS011;10195;50.868;4.382;2023-01-24T13:35:28;48.60;;;29.27;;
20069;SDS011;10195;50.868;4.382;2023-01-24T13:38:05;50.53;;;29.00;;
20069;SDS011;10195;50.868;4.382;2023-01-24T13:41:02;30.53;;;16.67;;
20069;SDS011;10195;50.868;4.382;2023-01-24T13:46:03;27.97;;;15.90;;
20069;SDS011;10195;50.868;4.382;2023-01-24T13:56:30;37.70;;;21.47;;
20069;SDS011;10195;50.868;4.382;2023-01-24T13:58:55;51.63;;;27.20;;
20069;SDS011;10195;50.868;4.382;2023-01-24T14:01:22;49.03;;;30.13;;
20069;SDS011;10195;50.868;4.382;2023-01-24T14:03:59;50.57;;;30.13;;
20069;SDS011;10195;50.868;4.382;2023-01-24T14:06:27;45.93;;;29.20;;
20069;SDS011;10195;50.868;4.382;2023-01-24T14:11:52;46.77;;;28.77;;
20069;SDS011;10195;50.868;4.382;2023-01-24T14:14:33;51.53;;;29.93;;
20069;SDS011;10195;50.868;4.382;2023-01-24T14:17:24;45.83;;;28.10;;
20069;SDS011;10195;50.868;4.382;2023-01-24T14:19:54;47.83;;;28.17;;
20069;SDS011;10195;50.868;4.382;2023-01-24T14:22:23;50.77;;;29.33;;
20069;SDS011;10195;50.868;4.382;2023-01-24T14:24:59;43.03;;;27.40;;
20069;SDS011;10195;50.868;4.382;2023-01-24T14:27:37;43.77;;;24.60;;
20069;SDS011;10195;50.868;4.382;2023-01-24T14:32:59;44.57;;;27.30;;
20069;SDS011;10195;50.868;4.382;2023-01-24T14:35:55;41.13;;;23.50;;
20069;SDS011;10195;50.868;4.382;2023-01-24T14:39:10;48.70;;;28.47;;
20069;SDS011;10195;50.868;4.382;2023-01-24T14:41:35;46.07;;;27.83;;
20069;SDS011;10195;50.868;4.382;2023-01-24T14:44:01;44.37;;;27.17;;
20069;SDS011;10195;50.868;4.382;2023-01-24T14:46:27;41.40;;;26.70;;
20069;SDS011;10195;50.868;4.382;2023-01-24T14:48:52;43.07;;;26.83;;
20069;SDS011;10195;50.868;4.382;2023-01-24T14:51:21;44.07;;;28.37;;
20069;SDS011;10195;50.868;4.382;2023-01-24T14:53:49;40.80;;;26.73;;
20069;SDS011;10195;50.868;4.382;2023-01-24T14:56:17;46.13;;;27.20;;
20069;SDS011;10195;50.868;4.382;2023-01-24T14:58:44;42.97;;;26.00;;
20069;SDS011;10195;50.868;4.382;2023-01-24T15:03:59;40.50;;;25.40;;
20069;SDS011;10195;50.868;4.382;2023-01-24T15:06:25;36.70;;;25.53;;
20069;SDS011;10195;50.868;4.382;2023-01-24T15:08:53;42.60;;;24.63;;
20069;SDS011;10195;50.868;4.382;2023-01-24T15:11:21;39.40;;;26.57;;
20069;SDS011;10195;50.868;4.382;2023-01-24T15:14:15;39.33;;;25.70;;
20069;SDS011;10195;50.868;4.382;2023-01-24T15:16:53;41.43;;;26.47;;
20069;SDS011;10195;50.868;4.382;2023-01-24T15:19:20;44.37;;;26.47;;
20069;SDS011;10195;50.868;4.382;2023-01-24T15:21:49;43.00;;;27.17;;
20069;SDS011;10195;50.868;4.382;2023-01-24T15:24:20;40.87;;;27.40;;
20069;SDS011;10195;50.868;4.382;2023-01-24T15:26:49;37.90;;;25.57;;
20069;SDS011;10195;50.868;4.382;2023-01-24T15:32:00;34.53;;;18.00;;
20069;SDS011;10195;50.868;4.382;2023-01-24T15:34:26;42.23;;;26.70;;
20069;SDS011;10195;50.868;4.382;2023-01-24T15:36:58;40.10;;;26.13;;
20069;SDS011;10195;50.868;4.382;2023-01-24T15:39:25;43.40;;;26.80;;
20069;SDS011;10195;50.868;4.382;2023-01-24T15:41:52;46.07;;;27.57;;
20069;SDS011;10195;50.868;4.382;2023-01-24T15:44:46;49.53;;;27.40;;
20069;SDS011;10195;50.868;4.382;2023-01-24T15:47:19;39.53;;;24.47;;
20069;SDS011;10195;50.868;4.382;2023-01-24T15:50:20;38.43;;;21.97;;
20069;SDS011;10195;50.868;4.382;2023-01-24T15:55:43;42.10;;;25.93;;
20069;SDS011;10195;50.868;4.382;2023-01-24T15:58:09;42.27;;;25.87;;
20069;SDS011;10195;50.868;4.382;2023-01-24T16:00:35;41.03;;;25.67;;
20069;SDS011;10195;50.868;4.382;2023-01-24T16:03:01;23.10;;;11.60;;
20069;SDS011;10195;50.868;4.382;2023-01-24T16:05:26;42.73;;;26.10;;
20069;SDS011;10195;50.868;4.382;2023-01-24T16:07:54;40.87;;;24.87;;
20069;SDS011;10195;50.868;4.382;2023-01-24T16:10:20;40.10;;;25.13;;
20069;SDS011;10195;50.868;4.382;2023-01-24T16:12:46;32.23;;;16.37;;
20069;SDS011;10195;50.868;4.382;2023-01-24T16:15:22;37.27;;;23.83;;
20069;SDS011;10195;50.868;4.382;2023-01-24T16:17:48;42.03;;;24.63;;
20069;SDS011;10195;50.868;4.382;2023-01-24T16:20:24;40.50;;;25.60;;
20069;SDS011;10195;50.868;4.382;2023-01-24T16:22:55;37.00;;;23.73;;
20069;SDS011;10195;50.868;4.382;2023-01-24T16:25:21;46.07;;;25.33;;
20069;SDS011;10195;50.868;4.382;2023-01-24T16:27:48;42.07;;;24.60;;
20069;SDS011;10195;50.868;4.382;2023-01-24T16:30:20;39.60;;;25.53;;
20069;SDS011;10195;50.868;4.382;2023-01-24T16:32:50;44.43;;;26.00;;
20069;SDS011;10195;50.868;4.382;2023-01-24T16:35:17;45.30;;;26.83;;
20069;SDS011;10195;50.868;4.382;2023-01-24T16:37:43;45.27;;;25.43;;
20069;SDS011;10195;50.868;4.382;2023-01-24T16:40:10;40.23;;;26.13;;
20069;SDS011;10195;50.868;4.382;2023-01-24T16:42:41;43.10;;;26.73;;
20069;SDS011;10195;50.868;4.382;2023-01-24T16:45:11;37.90;;;23.50;;
20069;SDS011;10195;50.868;4.382;2023-01-24T16:47:39;36.03;;;23.03;;
20069;SDS011;10195;50.868;4.382;2023-01-24T16:50:04;35.27;;;22.87;;
20069;SDS011;10195;50.868;4.382;2023-01-24T16:52:30;34.67;;;22.43;;
20069;SDS011;10195;50.868;4.382;2023-01-24T16:54:56;37.83;;;23.80;;